Time;durP1;ratioP1;P1;durP2;ratioP2;P2;SDS_P1;SDS_P2;PMS_P1;PMS_P2;Temp;Humidity;BMP_temperature;BMP_pressure;BME280_temperature;BME280_humidity;BME280_pressure;Samples;Min_cycle;Max_cycle;Signal;HPM_P1;HPM_P2
2023/08/29 00:01:12;;;;;;;5.57;2.97;;;;;;;13.06;100.00;101406.41;6091959;19;20546;-69
2023/08/29 00:03:21;;;;;;;4.78;2.38;;;;;;;13.01;100.00;101401.34;6091920;19;20007;-70
2023/08/29 00:05:26;;;;;;;4.38;2.45;;;;;;;13.00;100.00;101404.03;6086934;19;19998;-71
2023/08/29 00:07:31;;;;;;;6.25;2.47;;;;;;;12.96;100.00;101406.81;6087602;19;20038;-69
2023/08/29 00:09:36;;;;;;;3.95;2.40;;;;;;;12.95;100.00;101402.47;6091906;19;20102;-69
2023/08/29 00:11:41;;;;;;;5.43;2.78;;;;;;;12.94;100.00;101394.59;6073954;19;20078;-69
2023/08/29 00:13:46;;;;;;;3.83;2.10;;;;;;;12.94;100.00;101398.09;6090858;19;20011;-70
2023/08/29 00:15:55;;;;;;;4.32;2.40;;;;;;;12.94;100.00;101399.88;6091581;19;20132;-69
2023/08/29 00:17:57;;;;;;;5.55;2.97;;;;;;;12.94;100.00;101392.81;6093567;19;20003;-69
2023/08/29 00:20:06;;;;;;;4.35;2.50;;;;;;;12.90;100.00;101395.63;6092207;19;20006;-69
2023/08/29 00:22:08;;;;;;;6.75;2.85;;;;;;;12.89;100.00;101391.28;6093082;19;20013;-69
2023/08/29 00:24:16;;;;;;;6.47;2.83;;;;;;;12.87;100.00;101386.06;6089457;19;20003;-68
2023/08/29 00:26:21;;;;;;;5.65;2.60;;;;;;;12.88;100.00;101381.69;6086113;19;20014;-68
2023/08/29 00:28:26;;;;;;;5.25;2.72;;;;;;;12.87;100.00;101383.44;6090581;19;20006;-70
2023/08/29 00:30:35;;;;;;;5.93;2.53;;;;;;;12.86;100.00;101379.09;6090204;19;20578;-67
2023/08/29 00:32:40;;;;;;;4.95;2.45;;;;;;;12.86;100.00;101376.44;6086318;19;20697;-69
2023/08/29 00:34:46;;;;;;;3.95;2.40;;;;;;;12.81;100.00;101373.16;6091346;19;20021;-69
2023/08/29 00:36:54;;;;;;;6.13;2.53;;;;;;;12.80;100.00;101375.88;6092076;19;20042;-68
2023/08/29 00:39:03;;;;;;;3.63;2.20;;;;;;;12.86;100.00;101375.59;6092324;19;20010;-68
2023/08/29 00:41:10;;;;;;;5.10;2.63;;;;;;;12.87;100.00;101382.59;6088309;19;20019;-68
2023/08/29 00:43:15;;;;;;;5.75;2.67;;;;;;;12.89;100.00;101372.84;6083714;19;20018;-68
2023/08/29 00:45:20;;;;;;;4.35;2.50;;;;;;;12.87;100.00;101375.53;6089050;19;20024;-68
2023/08/29 00:47:25;;;;;;;6.15;2.85;;;;;;;12.87;100.00;101369.41;6086264;19;20020;-68
2023/08/29 00:49:31;;;;;;;7.22;2.88;;;;;;;12.86;100.00;101368.53;6087852;19;20506;-69
2023/08/29 00:51:36;;;;;;;4.30;2.45;;;;;;;12.86;100.00;101372.97;6083597;19;20105;-69
2023/08/29 00:53:43;;;;;;;6.53;2.92;;;;;;;12.87;100.00;101372.03;6081373;19;20012;-69
2023/08/29 00:55:49;;;;;;;6.25;2.75;;;;;;;12.84;100.00;101367.75;6086038;19;20010;-70
2023/08/29 00:57:56;;;;;;;6.20;2.55;;;;;;;12.81;100.00;101367.03;6078875;19;20086;-69
2023/08/29 01:00:01;;;;;;;6.78;2.75;;;;;;;12.77;100.00;101366.31;6068225;19;20010;-68
2023/08/29 01:02:07;;;;;;;4.80;2.50;;;;;;;12.71;100.00;101369.16;6085128;19;19998;-68
2023/08/29 01:04:10;;;;;;;4.78;2.50;;;;;;;12.66;100.00;101361.44;6072226;19;20033;-68
2023/08/29 01:06:16;;;;;;;5.45;2.55;;;;;;;12.67;100.00;101365.81;6085810;19;20280;-68
2023/08/29 01:08:22;;;;;;;6.03;2.67;;;;;;;12.67;100.00;101364.97;6068113;19;20006;-68
2023/08/29 01:10:38;;;;;;;5.55;2.63;;;;;;;12.67;100.00;101370.22;6086597;19;20009;-70
2023/08/29 01:12:58;;;;;;;5.30;2.50;;;;;;;12.62;100.00;101365.13;6065763;19;20099;-69
2023/08/29 01:15:11;;;;;;;5.97;2.97;;;;;;;12.56;100.00;101367.16;6085948;19;20002;-70
2023/08/29 01:17:25;;;;;;;4.60;2.63;;;;;;;12.56;100.00;101368.03;6064773;19;20444;-68
2023/08/29 01:19:31;;;;;;;5.78;3.05;;;;;;;12.54;100.00;101358.47;6085899;19;20002;-68
2023/08/29 01:21:46;;;;;;;4.35;2.53;;;;;;;12.53;100.00;101365.50;6084548;19;20328;-68
2023/08/29 01:24:04;;;;;;;6.63;3.08;;;;;;;12.48;100.00;101359.53;6064012;19;20644;-67
2023/08/29 01:26:16;;;;;;;7.18;3.05;;;;;;;12.43;100.00;101359.75;6061425;19;20007;-69
2023/08/29 01:28:22;;;;;;;4.85;2.47;;;;;;;12.44;100.00;101353.56;6078958;19;20007;-69
2023/08/29 01:30:29;;;;;;;10.75;3.05;;;;;;;12.42;100.00;101349.25;6070189;19;20006;-67
2023/08/29 01:32:34;;;;;;;5.82;2.75;;;;;;;12.46;100.00;101356.13;6084687;19;20002;-68
2023/08/29 01:34:42;;;;;;;7.07;2.88;;;;;;;12.42;100.00;101349.25;6076204;19;20010;-69
2023/08/29 01:36:47;;;;;;;3.55;2.40;;;;;;;12.40;100.00;101354.59;6085624;19;21206;-68
2023/08/29 01:38:52;;;;;;;5.55;2.53;;;;;;;12.38;100.00;101338.00;6081318;19;20014;-68
2023/08/29 01:41:00;;;;;;;5.80;2.75;;;;;;;12.43;100.00;101351.00;6081673;19;20009;-68
2023/08/29 01:43:08;;;;;;;7.30;2.92;;;;;;;12.43;100.00;101349.22;6083749;19;20015;-68
2023/08/29 01:45:10;;;;;;;5.85;2.55;;;;;;;12.39;100.00;101350.22;6065337;19;20911;-69
2023/08/29 01:47:18;;;;;;;6.78;2.60;;;;;;;12.39;100.00;101352.88;6085323;19;20014;-69
2023/08/29 01:49:24;;;;;;;5.05;2.97;;;;;;;12.36;100.00;101354.78;6084907;19;20002;-69
2023/08/29 01:51:32;;;;;;;5.53;2.40;;;;;;;12.32;100.00;101358.44;6084135;19;20056;-68
2023/08/29 01:53:38;;;;;;;5.10;2.50;;;;;;;12.28;100.00;101361.22;6082774;19;20026;-68
2023/08/29 01:55:46;;;;;;;5.53;3.03;;;;;;;12.27;100.00;101370.03;6089579;19;20222;-68
2023/08/29 01:57:54;;;;;;;5.35;2.60;;;;;;;12.25;100.00;101363.97;6068717;19;20007;-68
2023/08/29 02:00:05;;;;;;;5.32;2.60;;;;;;;12.23;100.00;101365.78;6087073;19;20014;-69
2023/08/29 02:02:10;;;;;;;5.15;2.63;;;;;;;12.23;100.00;101364.94;6089657;19;21264;-68
2023/08/29 02:04:15;;;;;;;4.78;2.58;;;;;;;12.21;100.00;101372.03;6081749;19;20007;-68
2023/08/29 02:06:18;;;;;;;6.03;2.78;;;;;;;12.22;100.00;101371.16;6090407;19;20013;-68
2023/08/29 02:08:23;;;;;;;5.65;2.85;;;;;;;12.21;100.00;101372.91;6088185;19;20014;-69
2023/08/29 02:10:28;;;;;;;6.15;2.75;;;;;;;12.21;100.00;101367.63;6086554;19;20377;-69
2023/08/29 02:12:35;;;;;;;4.20;2.80;;;;;;;12.23;100.00;101370.22;6084001;19;20094;-68
2023/08/29 02:14:40;;;;;;;5.82;2.53;;;;;;;12.19;100.00;101358.06;6087231;19;20445;-69
2023/08/29 02:16:51;;;;;;;4.05;2.40;;;;;;;12.18;100.00;101356.34;6084338;19;20007;-68
2023/08/29 02:18:56;;;;;;;5.55;2.83;;;;;;;12.20;100.00;101358.00;6084970;19;20010;-68
2023/08/29 02:20:59;;;;;;;6.72;2.65;;;;;;;12.21;100.00;101359.72;6088763;19;20007;-68
2023/08/29 02:23:04;;;;;;;6.32;3.00;;;;;;;12.19;100.00;101356.31;6091825;19;20027;-69
2023/08/29 02:25:10;;;;;;;5.90;2.88;;;;;;;12.18;100.00;101359.84;6087193;19;20003;-68
2023/08/29 02:27:15;;;;;;;7.50;2.63;;;;;;;12.18;100.00;101361.63;6086900;19;20463;-68
2023/08/29 02:29:20;;;;;;;6.25;2.95;;;;;;;12.18;100.00;101362.47;6090586;19;20131;-68
2023/08/29 02:31:25;;;;;;;6.18;3.05;;;;;;;12.23;100.00;101352.63;6086970;19;20006;-69
2023/08/29 02:33:35;;;;;;;5.40;2.78;;;;;;;12.24;100.00;101356.09;6086228;19;20006;-69
2023/08/29 02:35:43;;;;;;;6.95;3.10;;;;;;;12.27;100.00;101358.66;6090574;19;20011;-68
2023/08/29 02:37:48;;;;;;;6.28;2.92;;;;;;;12.27;100.00;101361.28;6088221;19;20082;-68
2023/08/29 02:39:53;;;;;;;5.75;2.97;;;;;;;12.29;100.00;101357.63;6086845;19;20011;-68
2023/08/29 02:41:59;;;;;;;4.95;2.80;;;;;;;12.32;100.00;101363.72;6093022;19;20388;-68
2023/08/29 02:44:05;;;;;;;8.18;3.10;;;;;;;12.33;100.00;101366.31;6087189;19;20021;-67
2023/08/29 02:46:11;;;;;;;4.63;2.88;;;;;;;12.40;100.00;101373.06;6085711;19;20011;-68
2023/08/29 02:48:13;;;;;;;6.80;3.00;;;;;;;12.44;100.00;101365.88;6085830;19;20352;-68
2023/08/29 02:50:21;;;;;;;4.60;2.63;;;;;;;12.45;100.00;101371.09;6089410;19;20359;-69
2023/08/29 02:52:26;;;;;;;7.07;2.92;;;;;;;12.50;100.00;101366.47;6086844;19;20422;-68
2023/08/29 02:54:31;;;;;;;4.85;2.60;;;;;;;12.51;100.00;101370.84;6089762;19;20106;-68
2023/08/29 02:56:36;;;;;;;10.02;3.75;;;;;;;12.59;100.00;101369.69;6090281;19;20774;-68
2023/08/29 02:58:41;;;;;;;7.82;3.30;;;;;;;12.60;100.00;101369.59;6090260;19;20025;-69
2023/08/29 03:00:50;;;;;;;4.80;3.05;;;;;;;12.64;100.00;101365.94;6087305;19;20014;-70
2023/08/29 03:02:57;;;;;;;5.05;2.63;;;;;;;12.66;100.00;101366.72;6092243;19;20367;-68
2023/08/29 03:05:02;;;;;;;8.07;2.92;;;;;;;12.70;100.00;101364.81;6090944;19;20085;-68
2023/08/29 03:07:10;;;;;;;6.82;2.72;;;;;;;12.68;100.00;101367.50;6091003;19;20078;-69
2023/08/29 03:09:15;;;;;;;6.50;3.10;;;;;;;12.73;100.00;101381.38;6089401;19;20011;-68
2023/08/29 03:11:20;;;;;;;6.05;2.97;;;;;;;12.74;100.00;101375.19;6089855;19;20020;-67
2023/08/29 03:13:25;;;;;;;12.43;3.60;;;;;;;12.72;100.00;101379.66;6083999;19;20450;-68
2023/08/29 03:15:34;;;;;;;5.18;3.05;;;;;;;12.70;100.00;101376.22;6089438;19;20006;-68
2023/08/29 03:17:39;;;;;;;8.05;3.28;;;;;;;12.70;100.00;101384.13;6088178;19;20043;-68
2023/08/29 03:20:13;;;;;;;5.60;3.03;;;;;;;12.71;100.00;101377.06;6088964;19;20471;-69
2023/08/29 03:22:41;;;;;;;6.70;3.30;;;;;;;12.74;100.00;101382.22;6067784;19;20035;-68
2023/08/29 03:24:45;;;;;;;8.82;3.83;;;;;;;12.75;100.00;101381.31;6087566;19;20516;-68
2023/08/29 03:26:51;;;;;;;7.30;3.70;;;;;;;12.81;100.00;101377.56;6084054;19;20453;-68
2023/08/29 03:28:59;;;;;;;7.40;3.42;;;;;;;12.83;100.00;101386.28;6088185;19;20105;-68
2023/08/29 03:31:14;;;;;;;6.22;3.17;;;;;;;12.86;100.00;101376.44;6088482;19;20006;-68
2023/08/29 03:33:19;;;;;;;7.30;3.25;;;;;;;12.88;100.00;101373.75;6088173;19;20011;-70
2023/08/29 03:35:26;;;;;;;8.68;3.55;;;;;;;12.87;100.00;101374.66;6082911;19;20014;-68
2023/08/29 03:37:31;;;;;;;7.22;3.35;;;;;;;12.88;100.00;101379.88;6087084;19;20007;-69
2023/08/29 03:39:39;;;;;;;6.80;3.15;;;;;;;12.87;100.00;101379.94;6085806;19;20006;-69
2023/08/29 03:41:44;;;;;;;8.30;3.75;;;;;;;12.86;100.00;101376.44;6088146;19;20015;-69
2023/08/29 03:43:49;;;;;;;10.75;4.03;;;;;;;12.88;100.00;101374.63;6087114;19;20010;-69
2023/08/29 03:45:59;;;;;;;8.23;3.83;;;;;;;12.90;100.00;101388.59;6087367;19;20046;-67
2023/08/29 03:48:04;;;;;;;8.52;3.30;;;;;;;12.90;100.00;101382.44;6088970;19;21268;-68
2023/08/29 03:50:21;;;;;;;8.77;4.05;;;;;;;12.86;100.00;101378.25;6085204;19;20002;-70
2023/08/29 03:52:30;;;;;;;9.43;4.25;;;;;;;12.89;100.00;101378.09;6082714;19;20446;-68
2023/08/29 03:54:35;;;;;;;7.80;4.03;;;;;;;12.89;100.00;101370.19;6063741;19;20014;-69
2023/08/29 03:56:43;;;;;;;7.65;3.78;;;;;;;12.90;100.00;101372.78;6085578;19;20018;-68
2023/08/29 03:58:49;;;;;;;10.07;3.70;;;;;;;12.92;100.00;101381.47;6067639;19;20870;-70
2023/08/29 04:00:52;;;;;;;6.78;3.33;;;;;;;12.93;100.00;101377.94;6083771;19;20413;-69
2023/08/29 04:03:00;;;;;;;10.55;4.20;;;;;;;12.94;100.00;101384.91;6062085;19;20006;-67
2023/08/29 04:05:14;;;;;;;8.35;4.22;;;;;;;12.96;100.00;101379.56;6061411;19;20003;-70
2023/08/29 04:07:17;;;;;;;7.20;3.60;;;;;;;12.93;100.00;101380.56;6066098;19;20034;-69
2023/08/29 04:09:25;;;;;;;8.75;4.00;;;;;;;12.91;100.00;101374.47;6066227;19;20079;-67
2023/08/29 04:11:30;;;;;;;10.70;4.22;;;;;;;12.91;100.00;101368.34;6086663;19;20006;-68
2023/08/29 04:13:38;;;;;;;10.48;3.85;;;;;;;12.88;100.00;101371.97;6067065;19;20085;-68
2023/08/29 04:15:43;;;;;;;8.25;3.45;;;;;;;12.86;100.00;101365.91;6064747;19;20547;-69
2023/08/29 04:17:48;;;;;;;8.00;3.58;;;;;;;12.80;100.00;101355.63;6067649;19;20003;-69
2023/08/29 04:19:54;;;;;;;8.18;3.95;;;;;;;12.76;100.00;101348.75;6089490;19;20448;-68
2023/08/29 04:22:03;;;;;;;8.85;4.13;;;;;;;12.74;100.00;101347.94;6066048;19;20316;-68
2023/08/29 04:24:08;;;;;;;8.48;4.10;;;;;;;12.74;100.00;101351.47;6091094;19;20618;-68
2023/08/29 04:26:13;;;;;;;8.05;3.40;;;;;;;12.72;100.00;101352.44;6083481;19;20010;-68
2023/08/29 04:28:20;;;;;;;6.82;3.50;;;;;;;12.74;100.00;101355.84;6067205;19;20510;-68
2023/08/29 04:30:28;;;;;;;10.77;4.05;;;;;;;12.72;100.00;101353.28;6086897;19;20006;-68
2023/08/29 04:32:36;;;;;;;10.13;4.43;;;;;;;12.69;100.00;101353.44;6084574;19;20008;-68
2023/08/29 04:34:42;;;;;;;9.75;4.32;;;;;;;12.65;100.00;101337.78;6086532;19;20112;-69
2023/08/29 04:36:47;;;;;;;9.82;4.45;;;;;;;12.57;100.00;101346.00;6083850;19;20039;-69
2023/08/29 04:38:55;;;;;;;10.60;4.25;;;;;;;12.50;100.00;101345.38;6071115;19;20027;-69
2023/08/29 04:41:00;;;;;;;7.72;3.35;;;;;;;12.52;100.00;101342.69;6087882;19;20010;-70
2023/08/29 04:43:08;;;;;;;9.02;3.67;;;;;;;12.56;100.00;101339.03;6086728;19;20034;-68
2023/08/29 04:45:14;;;;;;;9.18;4.13;;;;;;;12.61;100.00;101337.06;6064009;19;20661;-69
2023/08/29 04:47:22;;;;;;;9.13;4.70;;;;;;;12.65;100.00;101338.63;6085735;19;20517;-69
2023/08/29 04:49:30;;;;;;;8.38;4.40;;;;;;;12.68;100.00;101332.38;6086774;19;20006;-69
2023/08/29 04:51:35;;;;;;;10.60;4.90;;;;;;;12.73;100.00;101338.31;6085334;19;20002;-69
2023/08/29 04:53:40;;;;;;;11.63;4.43;;;;;;;12.77;100.00;101332.00;6081558;19;20022;-68
2023/08/29 04:55:43;;;;;;;10.85;4.45;;;;;;;12.77;100.00;101328.50;6090792;19;20017;-68
2023/08/29 04:57:48;;;;;;;8.93;4.20;;;;;;;12.82;100.00;101323.88;6067466;19;20007;-68
2023/08/29 04:59:57;;;;;;;8.13;3.55;;;;;;;12.88;100.00;101328.94;6068284;19;20648;-67
2023/08/29 05:02:02;;;;;;;10.52;4.15;;;;;;;12.88;100.00;101324.50;6088844;19;20017;-70
2023/08/29 05:04:10;;;;;;;11.25;3.90;;;;;;;12.86;100.00;101322.84;6068897;19;20486;-69
2023/08/29 05:06:15;;;;;;;9.75;4.53;;;;;;;12.85;100.00;101327.28;6091614;19;20014;-69
2023/08/29 05:08:21;;;;;;;9.48;4.45;;;;;;;12.85;100.00;101335.19;6091360;19;20031;-69
2023/08/29 05:10:26;;;;;;;10.38;4.35;;;;;;;12.85;100.00;101326.38;6094354;19;20586;-69
2023/08/29 05:12:31;;;;;;;10.75;4.88;;;;;;;12.84;100.00;101325.53;6094189;19;20475;-68
2023/08/29 05:14:34;;;;;;;8.32;4.13;;;;;;;12.86;100.00;101322.84;6093669;19;20007;-69
2023/08/29 05:16:39;;;;;;;9.32;4.07;;;;;;;12.91;100.00;101320.88;6092186;19;20073;-70
2023/08/29 05:18:44;;;;;;;8.68;4.60;;;;;;;12.95;100.00;101322.44;6092945;19;20541;-69
2023/08/29 05:20:51;;;;;;;8.75;3.80;;;;;;;12.98;100.00;101319.69;6089918;19;20018;-68
2023/08/29 05:23:02;;;;;;;7.30;3.80;;;;;;;13.06;100.00;101314.06;6089751;19;20010;-67
2023/08/29 05:25:11;;;;;;;9.43;3.80;;;;;;;13.12;100.00;101317.31;6067458;19;20499;-68
2023/08/29 05:27:16;;;;;;;8.70;3.42;;;;;;;13.14;100.00;101312.84;6088970;19;20035;-69
2023/08/29 05:29:21;;;;;;;8.18;3.75;;;;;;;13.17;100.00;101307.41;6087537;19;20097;-69
2023/08/29 05:31:26;;;;;;;10.80;4.25;;;;;;;13.18;100.00;101309.13;6094157;19;20003;-68
2023/08/29 05:33:32;;;;;;;9.15;4.18;;;;;;;13.24;100.00;101309.78;6096710;19;20020;-69
2023/08/29 05:35:37;;;;;;;8.63;4.13;;;;;;;13.28;100.00;101303.47;6092762;19;20460;-68
2023/08/29 05:37:45;;;;;;;8.35;3.95;;;;;;;13.34;100.00;101308.47;6096149;19;20003;-69
2023/08/29 05:39:50;;;;;;;5.72;3.38;;;;;;;13.43;100.00;101312.47;6074798;19;20567;-68
2023/08/29 05:41:58;;;;;;;7.63;3.80;;;;;;;13.47;100.00;101314.91;6097370;19;20069;-70
2023/08/29 05:44:01;;;;;;;10.18;4.13;;;;;;;13.51;100.00;101310.38;6096767;19;20034;-69
2023/08/29 05:46:08;;;;;;;8.85;4.05;;;;;;;13.52;100.00;101312.94;6095634;19;20103;-69
2023/08/29 05:48:13;;;;;;;8.55;3.95;;;;;;;13.52;100.00;101312.94;6089954;19;20019;-69
2023/08/29 05:50:18;;;;;;;7.78;3.92;;;;;;;13.55;100.00;101312.78;6074367;19;20046;-70
2023/08/29 05:52:25;;;;;;;8.98;4.72;;;;;;;13.55;100.00;101312.78;6095527;19;20346;-69
2023/08/29 05:54:36;;;;;;;8.48;3.97;;;;;;;13.60;100.00;101309.94;6075375;19;20046;-69
2023/08/29 05:56:41;;;;;;;11.15;4.40;;;;;;;13.62;100.00;101310.75;6092627;19;20018;-70
2023/08/29 05:58:46;;;;;;;7.25;3.40;;;;;;;13.64;100.00;101311.53;6076775;19;20015;-67
2023/08/29 06:00:51;;;;;;;8.02;4.15;;;;;;;13.68;100.00;101301.66;6067623;19;20799;-68
2023/08/29 06:02:58;;;;;;;7.53;3.47;;;;;;;13.70;100.00;101305.97;6076557;19;20101;-69
2023/08/29 06:05:06;;;;;;;8.68;3.75;;;;;;;13.74;100.00;101304.88;6087242;19;20010;-69
2023/08/29 06:07:11;;;;;;;7.38;3.90;;;;;;;13.77;100.00;101307.41;6087417;19;20022;-69
2023/08/29 06:09:16;;;;;;;9.35;4.03;;;;;;;13.83;100.00;101308.91;6088550;19;20072;-68
2023/08/29 06:11:25;;;;;;;7.88;4.15;;;;;;;13.85;100.00;101320.25;6067807;19;20191;-69
2023/08/29 06:13:30;;;;;;;7.57;4.00;;;;;;;13.87;100.00;101315.72;6072773;19;20021;-68
2023/08/29 06:15:35;;;;;;;8.55;3.92;;;;;;;13.94;100.00;101318.97;6090765;19;20003;-69
2023/08/29 06:17:40;;;;;;;8.52;3.80;;;;;;;13.93;100.00;101318.09;6070383;19;20070;-70
2023/08/29 06:19:45;;;;;;;7.20;3.97;;;;;;;13.90;100.00;101310.31;6064399;19;20019;-68
2023/08/29 06:21:51;;;;;;;13.07;5.43;;;;;;;13.93;100.00;101318.09;6063315;19;20082;-69
2023/08/29 06:23:56;;;;;;;10.20;5.05;;;;;;;13.95;100.00;101310.94;6081241;19;20007;-70
2023/08/29 06:26:03;;;;;;;8.18;3.97;;;;;;;13.97;100.00;101308.25;6085760;19;20014;-70
2023/08/29 06:28:10;;;;;;;10.00;4.80;;;;;;;13.97;100.00;101309.09;6064543;19;20340;-69
2023/08/29 06:30:16;;;;;;;8.07;3.88;;;;;;;13.98;100.00;101304.66;6089574;19;20409;-70
2023/08/29 06:32:21;;;;;;;9.35;5.03;;;;;;;13.96;100.00;101306.53;6063688;19;20021;-70
2023/08/29 06:34:29;;;;;;;14.40;5.13;;;;;;;13.99;100.00;101309.03;6097119;19;20102;-70
2023/08/29 06:36:37;;;;;;;11.98;5.22;;;;;;;14.03;100.00;101308.81;6088766;19;20334;-69
2023/08/29 06:38:42;;;;;;;9.73;4.32;;;;;;;14.03;100.00;101319.38;6087975;19;20018;-70
2023/08/29 06:40:48;;;;;;;9.05;4.63;;;;;;;14.04;100.00;101307.88;6088370;19;20050;-69
2023/08/29 06:42:54;;;;;;;9.57;4.75;;;;;;;14.10;100.00;101313.81;6091767;19;21317;-69
2023/08/29 06:45:08;;;;;;;10.77;5.18;;;;;;;14.13;100.00;101300.44;6092406;19;20494;-69
2023/08/29 06:47:13;;;;;;;11.38;4.70;;;;;;;14.17;100.00;101299.38;6091921;19;20495;-68
2023/08/29 06:49:18;;;;;;;13.13;5.00;;;;;;;14.18;100.00;101299.28;6088485;19;20586;-70
2023/08/29 06:51:26;;;;;;;9.18;4.13;;;;;;;14.23;100.00;101293.78;6092743;19;20031;-69
2023/08/29 06:53:31;;;;;;;9.52;4.75;;;;;;;14.27;100.00;101295.34;6090045;19;20127;-70
2023/08/29 06:55:37;;;;;;;11.57;5.32;;;;;;;14.31;100.00;101296.91;6090694;19;20130;-68
2023/08/29 06:57:42;;;;;;;11.25;5.07;;;;;;;14.36;100.00;101300.19;6094931;19;20009;-69
2023/08/29 06:59:48;;;;;;;13.18;5.55;;;;;;;14.40;100.00;101301.75;6094484;19;20010;-69
2023/08/29 07:01:55;;;;;;;11.20;5.60;;;;;;;14.47;100.00;101307.59;6088588;19;20011;-70
2023/08/29 07:04:00;;;;;;;8.27;4.53;;;;;;;14.72;100.00;101317.84;6077397;19;20273;-70
2023/08/29 07:06:06;;;;;;;10.55;4.65;;;;;;;15.11;100.00;101308.78;6092559;19;20017;-70
2023/08/29 07:08:12;;;;;;;13.43;5.78;;;;;;;15.39;100.00;101305.56;6068078;19;20021;-68
2023/08/29 07:10:17;;;;;;;8.52;4.53;;;;;;;15.62;100.00;101298.19;6083196;19;20011;-70
2023/08/29 07:12:22;;;;;;;9.35;5.13;;;;;;;16.00;100.00;101299.56;6074556;19;20590;-70
2023/08/29 07:14:30;;;;;;;9.98;4.40;;;;;;;16.54;100.00;101295.69;6068549;19;20003;-70
2023/08/29 07:16:38;;;;;;;10.75;5.18;;;;;;;17.10;100.00;101297.63;6092399;19;20102;-70
2023/08/29 07:18:46;;;;;;;13.30;6.13;;;;;;;17.62;99.05;101290.94;6089080;19;20010;-68
2023/08/29 07:20:51;;;;;;;11.95;4.15;;;;;;;17.79;99.64;101292.53;6075399;19;20007;-68
2023/08/29 07:22:59;;;;;;;9.65;4.57;;;;;;;17.66;97.83;101297.75;6094713;19;20070;-69
2023/08/29 07:25:05;;;;;;;9.50;4.55;;;;;;;17.61;94.81;101291.84;6085477;19;20018;-70
2023/08/29 07:27:10;;;;;;;8.65;3.83;;;;;;;17.90;95.44;101297.16;6094043;19;20478;-69
2023/08/29 07:29:19;;;;;;;10.73;4.45;;;;;;;18.37;93.46;101301.22;6094205;19;20532;-69
2023/08/29 07:31:24;;;;;;;9.80;4.18;;;;;;;18.79;90.98;101300.19;6094303;19;20019;-69
2023/08/29 07:33:30;;;;;;;7.88;4.28;;;;;;;19.00;87.75;101294.34;6072705;19;21195;-69
2023/08/29 07:35:38;;;;;;;8.85;4.00;;;;;;;19.21;87.83;101294.69;6090897;19;20014;-69
2023/08/29 07:37:44;;;;;;;8.20;3.80;;;;;;;19.15;85.57;101295.97;6093153;19;20069;-69
2023/08/29 07:39:49;;;;;;;8.40;4.10;;;;;;;19.51;85.88;101289.03;6090972;19;20018;-70
2023/08/29 07:41:54;;;;;;;11.25;4.35;;;;;;;19.51;84.27;101289.03;6070876;19;20405;-68
2023/08/29 07:43:59;;;;;;;11.75;4.38;;;;;;;19.72;84.67;101274.19;6066455;19;20010;-69
2023/08/29 07:46:08;;;;;;;7.75;4.00;;;;;;;20.00;82.54;101282.00;6089373;19;20855;-68
2023/08/29 07:48:13;;;;;;;10.48;4.88;;;;;;;20.55;83.41;101284.09;6094030;19;20657;-68
2023/08/29 07:50:19;;;;;;;8.10;3.72;;;;;;;21.02;81.52;101282.28;6091441;19;20003;-69
2023/08/29 07:52:28;;;;;;;7.97;4.53;;;;;;;20.39;76.60;101281.69;6085164;19;20006;-70
2023/08/29 07:54:34;;;;;;;7.85;4.05;;;;;;;20.58;78.64;101283.84;6083169;19;20085;-68
2023/08/29 07:56:36;;;;;;;8.45;4.13;;;;;;;20.28;79.83;101291.50;6070059;19;20035;-68
2023/08/29 07:58:41;;;;;;;7.35;3.95;;;;;;;20.27;79.74;101287.09;6089911;19;20010;-69
2023/08/29 08:00:46;;;;;;;9.30;4.18;;;;;;;19.89;79.62;101288.09;6066634;19;20014;-68
2023/08/29 08:02:51;;;;;;;6.18;3.30;;;;;;;19.47;79.96;101282.19;6070127;19;20010;-68
2023/08/29 08:04:59;;;;;;;6.20;3.50;;;;;;;19.75;79.99;101283.78;6091993;19;20562;-68
2023/08/29 08:07:04;;;;;;;7.32;3.67;;;;;;;19.68;79.12;101291.34;6068971;19;20715;-68
2023/08/29 08:09:12;;;;;;;6.57;3.50;;;;;;;19.46;80.01;101285.81;6086558;19;20011;-69
2023/08/29 08:11:17;;;;;;;8.68;4.15;;;;;;;19.47;80.47;101280.38;6076236;19;20440;-69
2023/08/29 08:13:20;;;;;;;6.05;2.80;;;;;;;19.52;78.92;101288.91;6066216;19;20002;-68
2023/08/29 08:15:26;;;;;;;4.88;2.67;;;;;;;19.62;76.59;101285.59;6090016;19;20496;-69
2023/08/29 08:17:34;;;;;;;6.13;2.75;;;;;;;20.14;77.19;101284.47;6084024;19;20002;-70
2023/08/29 08:19:39;;;;;;;4.63;2.40;;;;;;;19.85;73.37;101279.50;6089331;19;20028;-69
2023/08/29 08:21:44;;;;;;;4.95;2.78;;;;;;;19.25;76.11;101282.88;6089162;19;20003;-69
2023/08/29 08:23:51;;;;;;;6.13;3.10;;;;;;;19.40;76.97;101283.56;6091691;19;20002;-68
2023/08/29 08:26:02;;;;;;;5.20;2.70;;;;;;;19.15;77.38;101285.31;6071496;19;20512;-69
2023/08/29 08:28:08;;;;;;;4.25;2.83;;;;;;;19.24;78.49;101283.81;6088088;19;20329;-68
2023/08/29 08:30:13;;;;;;;5.03;2.60;;;;;;;19.42;77.23;101287.00;6051083;19;20013;-68
2023/08/29 08:32:19;;;;;;;5.20;2.45;;;;;;;19.48;77.20;101286.56;6084489;19;20018;-68
2023/08/29 08:34:22;;;;;;;5.00;2.50;;;;;;;19.61;75.52;101283.88;6068859;19;20006;-68
2023/08/29 08:36:30;;;;;;;4.47;2.17;;;;;;;20.32;73.12;101271.59;6077503;19;20010;-69
2023/08/29 08:38:35;;;;;;;4.32;2.70;;;;;;;20.27;71.85;101276.41;6078240;19;20463;-67
2023/08/29 08:40:42;;;;;;;5.35;2.80;;;;;;;20.60;72.12;101273.06;6087627;19;20929;-68
2023/08/29 08:42:53;;;;;;;4.60;2.83;;;;;;;20.85;71.33;101271.19;6085108;19;20468;-69
2023/08/29 08:45:04;;;;;;;5.53;2.95;;;;;;;20.77;71.07;101275.31;6082729;19;20091;-69
2023/08/29 08:47:13;;;;;;;6.93;3.30;;;;;;;20.99;69.00;101265.66;6068300;19;20047;-68
2023/08/29 08:49:20;;;;;;;6.47;3.20;;;;;;;21.79;68.81;101262.00;6069095;19;20010;-68
2023/08/29 08:51:30;;;;;;;8.25;3.78;;;;;;;21.57;68.28;101261.06;6087043;19;20507;-67
2023/08/29 08:53:36;;;;;;;4.80;3.40;;;;;;;21.39;67.23;101265.22;6065778;19;20010;-68
2023/08/29 08:55:41;;;;;;;6.15;3.22;;;;;;;21.30;67.99;101263.22;6090266;19;20094;-68
2023/08/29 08:57:46;;;;;;;7.13;3.55;;;;;;;21.38;67.88;101264.38;6074967;19;20034;-69
2023/08/29 08:59:57;;;;;;;5.78;3.05;;;;;;;20.90;69.40;101256.50;6074985;19;20348;-68
2023/08/29 09:02:02;;;;;;;7.40;2.75;;;;;;;20.92;70.00;101261.75;6073864;19;20002;-68
2023/08/29 09:04:08;;;;;;;9.52;2.97;;;;;;;20.76;70.31;101262.91;6071569;19;20003;-68
2023/08/29 09:06:13;;;;;;;7.57;2.85;;;;;;;20.70;71.42;101260.72;6075161;19;20002;-68
2023/08/29 09:08:16;;;;;;;5.15;2.85;;;;;;;20.60;69.86;101262.41;6090910;19;20485;-69
2023/08/29 09:10:21;;;;;;;5.93;2.92;;;;;;;20.40;70.73;101261.19;6068039;19;20006;-70
2023/08/29 09:12:29;;;;;;;7.10;3.13;;;;;;;20.39;70.68;101260.34;6087528;19;20471;-70
2023/08/29 09:14:38;;;;;;;5.20;2.90;;;;;;;20.63;71.09;101262.16;6084334;19;20010;-68
2023/08/29 09:16:46;;;;;;;6.38;2.90;;;;;;;20.86;69.71;101252.38;6052848;19;20007;-69
2023/08/29 09:18:55;;;;;;;5.32;2.50;;;;;;;20.92;67.53;101251.91;6071490;19;20498;-68
2023/08/29 09:21:01;;;;;;;5.95;3.17;;;;;;;21.00;68.81;101245.97;6092065;19;20100;-70
2023/08/29 09:23:22;;;;;;;7.45;3.78;;;;;;;21.68;65.88;101242.31;6092953;19;20462;-69
2023/08/29 09:25:31;;;;;;;5.07;2.85;;;;;;;22.55;62.11;101250.34;6083448;19;20014;-69
2023/08/29 09:27:42;;;;;;;4.68;2.67;;;;;;;22.68;60.76;101244.78;6089468;19;20451;-69
2023/08/29 09:29:47;;;;;;;6.35;3.00;;;;;;;22.14;57.92;101237.69;6089484;19;20038;-68
2023/08/29 09:31:56;;;;;;;6.60;3.38;;;;;;;21.36;61.77;101234.19;6069793;19;20081;-68
2023/08/29 09:34:02;;;;;;;4.43;2.22;;;;;;;22.35;57.13;101237.75;6095471;19;20038;-70
2023/08/29 09:36:10;;;;;;;5.32;2.50;;;;;;;23.16;57.67;101238.03;6091948;19;20499;-68
2023/08/29 09:38:15;;;;;;;3.60;1.98;;;;;;;23.20;54.79;101234.09;6090217;19;20444;-68
2023/08/29 09:40:21;;;;;;;4.32;2.20;;;;;;;22.75;56.47;101235.25;6091780;19;20479;-71
2023/08/29 09:42:30;;;;;;;4.60;2.20;;;;;;;22.21;57.76;101238.09;6076932;19;20578;-69